createdAt,value
2018-04-16T00:00:00.554Z,42.33
2018-04-16T00:05:01.521Z,39.87
2018-04-16T00:10:02.483Z,42.43
2018-04-16T00:15:03.466Z,45.47
2018-04-16T00:20:04.450Z,40.37
2018-04-16T00:25:05.425Z,42.00
2018-04-16T00:30:06.392Z,39.67
2018-04-16T00:35:13.347Z,37.30
2018-04-16T00:40:20.421Z,34.70
2018-04-16T00:45:27.368Z,33.80
2018-04-16T00:50:34.556Z,34.73
2018-04-16T00:55:41.614Z,37.60
2018-04-16T01:00:48.649Z,36.80
2018-04-16T01:05:55.726Z,37.63
2018-04-16T01:11:02.803Z,37.40
2018-04-16T01:21:43.753Z,36.13
2018-04-16T01:26:50.815Z,34.17
2018-04-16T01:31:57.904Z,35.70
2018-04-16T01:37:05.020Z,36.43
2018-04-16T01:42:12.100Z,33.13
2018-04-16T01:47:19.221Z,33.90
2018-04-16T01:52:26.175Z,36.10
2018-04-16T01:57:33.156Z,34.90
2018-04-16T02:02:40.182Z,33.83
2018-04-16T02:07:47.291Z,30.63
2018-04-16T02:12:54.387Z,33.67
2018-04-16T02:18:01.504Z,35.17
2018-04-16T02:23:08.584Z,32.93
2018-04-16T02:28:15.779Z,33.30
2018-04-16T02:33:22.855Z,32.10
2018-04-16T02:38:29.929Z,32.10
2018-04-16T02:43:37.052Z,31.90
2018-04-16T02:48:44.100Z,31.63
2018-04-16T02:53:51.052Z,30.83
2018-04-16T02:58:58.070Z,33.00
2018-04-16T03:04:05.096Z,33.63
2018-04-16T03:14:49.367Z,32.23
2018-04-16T03:19:56.449Z,33.10
2018-04-16T03:30:39.527Z,31.83
2018-04-16T03:35:46.499Z,32.80
2018-04-16T03:40:53.503Z,32.80
2018-04-16T03:46:00.646Z,30.60
2018-04-16T03:51:04.509Z,29.10
2018-04-16T03:56:05.509Z,32.73
2018-04-16T04:01:06.470Z,36.43
2018-04-16T04:06:07.427Z,34.50
2018-04-16T04:11:08.391Z,32.20
2018-04-16T04:16:09.378Z,33.70
2018-04-16T04:21:10.330Z,35.13
2018-04-16T04:26:23.622Z,35.00
2018-04-16T04:31:24.604Z,34.03
2018-04-16T04:36:25.556Z,35.60
2018-04-16T04:41:26.525Z,33.83
2018-04-16T04:46:27.495Z,36.20
2018-04-16T04:51:28.436Z,36.00
2018-04-16T04:56:29.391Z,35.63
2018-04-16T05:01:30.342Z,34.70
2018-04-16T05:06:31.329Z,35.97
2018-04-16T05:11:32.281Z,37.10
2018-04-16T05:16:33.234Z,37.23
2018-04-16T05:21:34.195Z,23.07
2018-04-16T05:26:35.180Z,34.70
2018-04-16T05:31:36.159Z,37.50
2018-04-16T05:36:37.113Z,37.40
2018-04-16T05:41:38.080Z,38.40
2018-04-16T05:46:39.076Z,36.83
2018-04-16T05:51:40.039Z,36.30
2018-04-16T05:56:40.999Z,38.87
2018-04-16T06:01:41.955Z,40.57
2018-04-16T06:06:42.923Z,40.47
2018-04-16T06:11:43.908Z,38.83
2018-04-16T06:16:44.884Z,38.80
2018-04-16T06:21:45.848Z,39.20
2018-04-16T06:26:46.912Z,38.43
2018-04-16T06:31:47.917Z,37.17
2018-04-16T06:36:48.895Z,40.27
2018-04-16T06:41:49.875Z,38.93
2018-04-16T06:46:50.847Z,39.07
2018-04-16T06:51:51.795Z,40.93
2018-04-16T06:56:52.773Z,43.50
2018-04-16T07:01:53.775Z,43.30
2018-04-16T07:06:54.759Z,40.10
2018-04-16T07:11:55.728Z,41.63
2018-04-16T07:16:56.713Z,39.77
2018-04-16T07:21:57.669Z,42.50
2018-04-16T07:26:58.633Z,41.97
2018-04-16T07:31:59.627Z,42.80
2018-04-16T07:37:00.584Z,45.40
2018-04-16T07:42:01.540Z,42.33
2018-04-16T07:47:02.536Z,42.47
2018-04-16T07:52:03.494Z,39.80
2018-04-16T07:57:04.455Z,40.60
2018-04-16T08:02:05.441Z,40.13
2018-04-16T08:07:06.440Z,41.03
2018-04-16T08:12:07.417Z,42.40
2018-04-16T08:17:08.359Z,42.20
2018-04-16T08:22:09.365Z,42.37
2018-04-16T08:27:10.329Z,39.47
2018-04-16T08:32:11.321Z,39.30
2018-04-16T08:37:12.279Z,38.97
2018-04-16T08:42:13.256Z,42.43
2018-04-16T08:47:14.264Z,39.63
2018-04-16T08:52:15.232Z,38.60
2018-04-16T08:57:16.204Z,42.90
2018-04-16T09:02:17.177Z,42.07
2018-04-16T09:07:18.123Z,40.33
2018-04-16T09:12:19.095Z,39.50
2018-04-16T09:17:20.101Z,39.07
2018-04-16T09:22:21.039Z,38.23
2018-04-16T09:27:21.971Z,43.57
2018-04-16T09:32:22.946Z,40.50
2018-04-16T09:37:23.921Z,40.87
2018-04-16T09:42:24.894Z,40.17
2018-04-16T09:47:25.876Z,42.13
2018-04-16T09:52:26.842Z,39.77
2018-04-16T09:57:27.795Z,38.80
2018-04-16T10:02:28.786Z,41.90
2018-04-16T10:07:29.731Z,38.63
2018-04-16T10:12:30.704Z,38.43
2018-04-16T10:17:31.648Z,38.63
2018-04-16T10:22:32.600Z,35.00
2018-04-16T10:27:33.555Z,38.27
2018-04-16T10:32:34.552Z,36.23
2018-04-16T10:37:35.504Z,37.60
2018-04-16T10:42:36.492Z,36.87
2018-04-16T10:47:37.480Z,36.93
2018-04-16T10:52:38.458Z,37.47
2018-04-16T10:57:39.436Z,35.63
2018-04-16T11:02:40.411Z,37.07
2018-04-16T11:07:41.387Z,36.83
2018-04-16T11:12:42.389Z,37.43
2018-04-16T11:17:43.357Z,39.13
2018-04-16T11:22:44.331Z,35.00
2018-04-16T11:27:45.316Z,36.03
2018-04-16T11:32:46.293Z,33.13
2018-04-16T11:37:47.270Z,37.23
2018-04-16T11:42:48.245Z,35.80
2018-04-16T11:47:49.255Z,36.47
2018-04-16T11:52:50.207Z,30.80
2018-04-16T11:57:51.185Z,30.70
2018-04-16T12:02:52.190Z,31.60
2018-04-16T12:07:53.156Z,34.00
2018-04-16T12:12:54.090Z,32.83
2018-04-16T12:17:55.059Z,32.33
2018-04-16T12:23:08.456Z,31.33
2018-04-16T12:28:21.603Z,29.07
2018-04-16T12:33:22.568Z,30.70
2018-04-16T12:38:23.591Z,32.00
2018-04-16T12:43:24.570Z,32.10
2018-04-16T12:48:37.853Z,34.97
2018-04-16T12:53:38.833Z,30.77
2018-04-16T12:58:39.774Z,31.17
2018-04-16T13:03:40.729Z,30.30
2018-04-16T13:08:41.721Z,28.70
2018-04-16T13:13:42.722Z,32.70
2018-04-16T13:18:43.734Z,29.13
2018-04-16T13:23:50.747Z,30.40
2018-04-16T13:28:57.735Z,26.50
2018-04-16T13:34:04.863Z,27.60
2018-04-16T13:39:05.875Z,28.30
2018-04-16T13:44:06.822Z,28.10
2018-04-16T13:49:07.845Z,27.60
2018-04-16T13:54:08.824Z,29.23
2018-04-16T13:59:15.905Z,30.57
2018-04-16T14:04:22.988Z,33.37
2018-04-16T14:09:36.292Z,30.30
2018-04-16T14:14:49.434Z,32.97
2018-04-16T14:19:50.426Z,32.93
2018-04-16T14:24:51.392Z,32.47
2018-04-16T14:29:58.335Z,33.80
2018-04-16T14:34:59.334Z,35.80
2018-04-16T14:40:00.335Z,42.63
2018-04-16T14:45:01.325Z,42.00
2018-04-16T14:50:09.077Z,45.10
2018-04-16T14:55:22.169Z,43.00
2018-04-16T15:00:23.139Z,42.10
2018-04-16T15:05:24.148Z,38.07
2018-04-16T15:10:25.131Z,36.43
2018-04-16T15:15:32.288Z,38.40
2018-04-16T15:20:33.273Z,38.83
2018-04-16T15:25:34.270Z,37.50
2018-04-16T15:30:35.241Z,37.30
2018-04-16T15:35:36.254Z,37.13
2018-04-16T15:40:37.253Z,35.47
2018-04-16T15:45:38.235Z,34.77
2018-04-16T15:50:39.270Z,33.50
2018-04-16T15:55:40.232Z,33.27
2018-04-16T16:00:41.252Z,32.60
2018-04-16T16:05:42.297Z,35.80
2018-04-16T16:10:43.296Z,29.97
2018-04-16T16:15:44.280Z,27.63
2018-04-16T16:20:45.265Z,28.57
2018-04-16T16:25:46.244Z,28.83
2018-04-16T16:30:47.232Z,28.13
2018-04-16T16:35:48.273Z,29.80
2018-04-16T16:40:49.276Z,30.13
2018-04-16T16:45:50.292Z,30.50
2018-04-16T16:50:51.327Z,30.77
2018-04-16T16:55:52.292Z,33.57
2018-04-16T17:00:53.280Z,38.03
2018-04-16T17:05:54.275Z,33.67
2018-04-16T17:10:55.310Z,33.90
2018-04-16T17:15:56.312Z,36.13
2018-04-16T17:20:57.317Z,36.80
2018-04-16T17:25:58.334Z,37.13
2018-04-16T17:30:59.324Z,31.73
2018-04-16T17:36:00.332Z,31.40
2018-04-16T17:41:01.372Z,29.20
2018-04-16T17:46:02.371Z,19.73
2018-04-16T17:51:03.411Z,17.20
2018-04-16T17:56:04.404Z,17.10
2018-04-16T18:01:05.423Z,15.97
2018-04-16T18:06:06.416Z,13.90
2018-04-16T18:11:07.398Z,14.00
2018-04-16T18:16:08.464Z,13.97
2018-04-16T18:21:09.511Z,13.27
2018-04-16T18:26:10.536Z,12.83
2018-04-16T18:31:11.538Z,12.20
2018-04-16T18:36:12.582Z,13.67
2018-04-16T18:41:13.637Z,13.10
2018-04-16T18:46:14.642Z,12.13
2018-04-16T18:51:15.688Z,12.40
2018-04-16T18:56:16.707Z,10.93
2018-04-16T19:01:17.861Z,10.73
2018-04-16T19:06:18.843Z,11.73
2018-04-16T19:11:19.890Z,11.67
2018-04-16T19:16:20.876Z,11.83
2018-04-16T19:21:28.113Z,11.70
2018-04-16T19:26:29.173Z,12.53
2018-04-16T19:31:30.323Z,12.53
2018-04-16T19:36:31.280Z,12.07
2018-04-16T19:41:38.298Z,12.23
2018-04-16T19:46:39.294Z,9.90
2018-04-16T19:51:40.345Z,9.73
2018-04-16T19:56:47.402Z,7.50
2018-04-16T20:01:54.461Z,7.87
2018-04-16T20:06:55.491Z,7.63
2018-04-16T20:11:56.504Z,7.60
2018-04-16T20:16:57.546Z,7.03
2018-04-16T20:21:58.575Z,7.93
2018-04-16T20:26:59.572Z,8.10
2018-04-16T20:32:00.572Z,11.03
2018-04-16T20:37:01.559Z,9.50
2018-04-16T20:42:02.552Z,10.67
2018-04-16T20:47:03.583Z,11.83
2018-04-16T20:52:04.653Z,11.77
2018-04-16T20:57:05.654Z,9.80
2018-04-16T21:02:06.616Z,9.60
2018-04-16T21:07:07.921Z,8.77
2018-04-16T21:12:08.918Z,9.30
2018-04-16T21:17:09.904Z,9.80
2018-04-16T21:22:10.915Z,9.90
2018-04-16T21:27:11.894Z,9.40
2018-04-16T21:32:12.888Z,11.47
2018-04-16T21:37:13.854Z,9.30
2018-04-16T21:42:14.844Z,8.50
2018-04-16T21:47:15.832Z,8.07
2018-04-16T21:52:16.803Z,6.70
2018-04-16T21:57:17.790Z,6.23
2018-04-16T22:02:18.753Z,6.47
2018-04-16T22:07:19.732Z,6.30
2018-04-16T22:12:20.686Z,7.13
2018-04-16T22:17:21.627Z,7.60
2018-04-16T22:22:22.598Z,5.87
2018-04-16T22:27:23.813Z,6.60
2018-04-16T22:32:24.805Z,7.40
2018-04-16T22:37:25.803Z,6.83
2018-04-16T22:42:26.774Z,7.97
2018-04-16T22:47:27.751Z,7.83
2018-04-16T22:52:28.728Z,7.10
2018-04-16T22:57:29.695Z,7.50
2018-04-16T23:02:30.636Z,6.50
2018-04-16T23:07:31.593Z,6.47
2018-04-16T23:12:32.557Z,6.30
2018-04-16T23:17:33.548Z,7.40
2018-04-16T23:22:34.505Z,7.33
2018-04-16T23:27:35.436Z,7.97
2018-04-16T23:32:36.416Z,7.30
2018-04-16T23:37:37.377Z,6.60
2018-04-16T23:42:38.329Z,5.90
2018-04-16T23:47:39.318Z,7.03
2018-04-16T23:52:40.324Z,6.80
2018-04-16T23:57:41.274Z,7.07
